CYHA

Quaqtaq Airport

Quaqtaq, Quebec, Canada
METAR CYHA 182200Z 18004KT 15SM IC SCT066 OVC250 M26/M30 A2971 RMK AS4CI4 SNW CVR/TR LOOSE LAST STFD OBS/NEXT 191300 UTC SLP066
Observed Flight Rules
Jan-18 @ 22:00 UTC (9 hours ago) Visual Flight Rules
Wind Visibility Clouds Conditions
180° at 4 knots 15 miles
  • Scattered at 6,600' AGL
  • Overcast at 25,000' AGL
  • Ice crystals
Temperatures Readings
Current -26°C / -15°F
Dewpoint -30°C / -22°F
Humidity 69%
Altimeter 29.71" Hg
Pressure 1006.6 hPa
Elevation 30
METAR CYHA 182200Z 18004KT 15SM IC SCT066 OVC250 M26/M30 A2971 RMK AS4CI4 SNW CVR/TR LOOSE LAST STFD OBS/NEXT 191300 UTC SLP066
Observed Flight Rules
Jan-18 @ 22:00 UTC
(9 hours ago)
VFR
Wind Visibility
180° at 4 knots 15 miles
Clouds
  • Scattered at 6,600' AGL
  • Overcast at 25,000' AGL
Conditions
  • Ice crystals
Temperature Dewpoint
-26°C / -15°F -30°C / -22°F
Humidity Altimeter Pressure
69% 29.71" Hg 1006.6 hPa